createdAt,value
2018-07-19T00:01:38.560Z,4.75
2018-07-19T00:03:42.690Z,4.37
2018-07-19T00:05:46.866Z,4.33
2018-07-19T00:07:51.110Z,4.47
2018-07-19T00:09:55.250Z,4.67
2018-07-19T00:11:59.572Z,5.10
2018-07-19T00:14:03.732Z,4.77
2018-07-19T00:16:07.909Z,4.93
2018-07-19T00:18:12.080Z,5.03
2018-07-19T00:20:16.308Z,4.80
2018-07-19T00:22:20.530Z,5.03
2018-07-19T00:24:24.823Z,5.30
2018-07-19T00:26:30.273Z,5.47
2018-07-19T00:28:34.610Z,5.87
2018-07-19T00:30:38.663Z,5.03
2018-07-19T00:32:43.457Z,5.50
2018-07-19T00:34:47.697Z,5.20
2018-07-19T00:36:51.833Z,5.73
2018-07-19T00:38:55.955Z,5.17
2018-07-19T00:41:00.132Z,4.80
2018-07-19T00:43:04.148Z,5.00
2018-07-19T00:45:08.513Z,4.77
2018-07-19T00:47:12.589Z,5.65
2018-07-19T00:49:16.982Z,4.80
2018-07-19T00:51:21.009Z,4.80
2018-07-19T00:53:25.113Z,4.50
2018-07-19T00:55:29.116Z,5.17
2018-07-19T00:57:32.842Z,4.87
2018-07-19T00:59:37.052Z,5.40
2018-07-19T01:01:41.271Z,5.40
2018-07-19T01:03:45.451Z,5.13
2018-07-19T01:05:49.775Z,5.23
2018-07-19T01:07:54.036Z,5.22
2018-07-19T01:09:58.197Z,5.00
2018-07-19T01:12:02.444Z,5.73
2018-07-19T01:14:06.703Z,5.20
2018-07-19T01:16:10.739Z,5.67
2018-07-19T01:18:14.520Z,5.80
2018-07-19T01:20:18.981Z,5.00
2018-07-19T01:22:23.390Z,5.80
2018-07-19T01:24:27.564Z,5.12
2018-07-19T01:26:31.806Z,5.30
2018-07-19T01:28:35.905Z,5.67
2018-07-19T01:30:39.978Z,6.20
2018-07-19T01:32:44.217Z,6.63
2018-07-19T01:34:48.335Z,5.73
2018-07-19T01:36:52.347Z,6.03
2018-07-19T01:38:56.713Z,6.70
2018-07-19T01:41:09.919Z,6.20
2018-07-19T01:43:14.057Z,6.73
2018-07-19T01:45:18.209Z,6.17
2018-07-19T01:47:22.335Z,6.20
2018-07-19T01:49:26.383Z,6.20
2018-07-19T01:51:30.525Z,6.77
2018-07-19T01:53:34.537Z,6.40
2018-07-19T01:55:39.191Z,6.40
2018-07-19T01:57:43.271Z,5.90
2018-07-19T01:59:48.266Z,6.50
2018-07-19T02:01:52.712Z,6.37
2018-07-19T02:03:56.375Z,6.35
2018-07-19T02:06:00.558Z,6.13
2018-07-19T02:08:04.651Z,6.50
2018-07-19T02:10:08.353Z,6.27
2018-07-19T02:12:12.331Z,5.65
2018-07-19T02:14:16.539Z,7.23
2018-07-19T02:16:20.596Z,6.53
2018-07-19T02:18:24.759Z,6.60
2018-07-19T02:20:28.784Z,7.23
2018-07-19T02:22:32.855Z,7.17
2018-07-19T02:24:36.990Z,7.23
2018-07-19T02:26:41.238Z,6.20
2018-07-19T02:28:45.279Z,6.30
2018-07-19T02:30:49.436Z,6.87
2018-07-19T02:32:53.546Z,6.87
2018-07-19T02:34:57.667Z,7.37
2018-07-19T02:37:01.763Z,7.67
2018-07-19T02:39:09.986Z,6.70
2018-07-19T02:41:14.090Z,6.80
2018-07-19T02:43:18.027Z,6.70
2018-07-19T02:45:22.208Z,6.77
2018-07-19T02:47:26.201Z,6.83
2018-07-19T02:49:30.283Z,7.60
2018-07-19T02:51:34.320Z,6.50
2018-07-19T02:53:38.444Z,7.50
2018-07-19T02:55:42.827Z,7.93
2018-07-19T02:57:46.963Z,7.20
2018-07-19T02:59:51.195Z,7.37
2018-07-19T03:01:55.398Z,7.57
2018-07-19T03:03:59.337Z,7.90
2018-07-19T03:06:03.635Z,7.77
2018-07-19T03:08:07.721Z,8.23
2018-07-19T03:10:11.954Z,7.73
2018-07-19T03:12:15.987Z,8.20
2018-07-19T03:14:20.333Z,7.70
2018-07-19T03:16:24.357Z,7.80
2018-07-19T03:18:28.466Z,8.00
2018-07-19T03:20:32.492Z,8.67
2018-07-19T03:22:36.723Z,8.37
2018-07-19T03:24:40.985Z,7.90
2018-07-19T03:26:45.240Z,7.87
2018-07-19T03:28:49.337Z,7.60
2018-07-19T03:30:53.440Z,7.13
2018-07-19T03:32:58.109Z,7.70
2018-07-19T03:35:02.268Z,8.30
2018-07-19T03:37:06.332Z,7.90
2018-07-19T03:39:11.492Z,8.00
2018-07-19T03:41:15.727Z,7.70
2018-07-19T03:43:19.957Z,8.80
2018-07-19T03:45:24.226Z,8.73
2018-07-19T03:47:28.257Z,7.60
2018-07-19T03:49:32.556Z,8.70
2018-07-19T03:51:36.887Z,8.00
2018-07-19T03:53:41.129Z,8.27
2018-07-19T03:55:45.239Z,8.00
2018-07-19T03:57:49.562Z,8.00
2018-07-19T03:59:53.593Z,7.33
2018-07-19T04:01:57.942Z,8.23
2018-07-19T04:04:01.980Z,7.40
2018-07-19T04:06:06.228Z,7.20
2018-07-19T04:08:10.330Z,7.50
2018-07-19T04:10:15.209Z,7.97
2018-07-19T04:12:20.592Z,7.62
2018-07-19T04:14:24.901Z,8.07
2018-07-19T04:16:28.981Z,8.77
2018-07-19T04:18:33.512Z,8.13
2018-07-19T04:20:37.751Z,8.23
2018-07-19T04:22:42.116Z,7.97
2018-07-19T04:24:49.740Z,10.95
2018-07-19T04:26:54.641Z,10.13
2018-07-19T04:28:58.654Z,11.00
2018-07-19T04:31:03.042Z,9.47
2018-07-19T04:33:07.099Z,9.18
2018-07-19T04:35:11.019Z,9.03
2018-07-19T04:37:14.827Z,8.80
2018-07-19T04:39:18.957Z,10.13
2018-07-19T04:41:22.899Z,9.83
2018-07-19T04:43:27.147Z,9.80
2018-07-19T04:45:31.320Z,9.67
2018-07-19T04:47:35.463Z,10.40
2018-07-19T04:49:39.602Z,9.80
2018-07-19T04:51:43.968Z,8.80
2018-07-19T04:53:48.001Z,10.10
2018-07-19T04:55:52.400Z,8.70
2018-07-19T04:57:56.495Z,8.70
2018-07-19T05:00:00.594Z,9.17
2018-07-19T05:02:04.860Z,8.40
2018-07-19T05:04:08.946Z,8.00
2018-07-19T05:06:13.047Z,7.90
2018-07-19T05:08:17.169Z,8.10
2018-07-19T05:10:21.440Z,8.23
2018-07-19T05:12:25.798Z,7.23
2018-07-19T05:14:29.892Z,7.85
2018-07-19T05:16:34.578Z,7.60
2018-07-19T05:18:38.733Z,7.90
2018-07-19T05:21:09.360Z,8.30
2018-07-19T05:23:13.657Z,8.20
2018-07-19T05:25:17.890Z,8.43
2018-07-19T05:27:22.071Z,7.53
2018-07-19T05:29:26.162Z,7.97
2018-07-19T05:31:30.313Z,8.70
2018-07-19T05:33:34.408Z,7.10
2018-07-19T05:35:38.681Z,7.30
2018-07-19T05:37:42.769Z,8.30
2018-07-19T05:39:48.007Z,8.13
2018-07-19T05:41:52.207Z,8.13
2018-07-19T05:43:56.327Z,7.43
2018-07-19T05:46:00.528Z,8.40
2018-07-19T05:48:04.594Z,7.63
2018-07-19T05:50:08.761Z,8.80
2018-07-19T05:52:12.919Z,7.30
2018-07-19T05:54:17.059Z,8.30
2018-07-19T05:56:21.216Z,8.20
2018-07-19T05:58:25.415Z,7.80
2018-07-19T06:00:29.483Z,7.50
2018-07-19T06:02:33.709Z,8.90
2018-07-19T06:04:37.814Z,8.20
2018-07-19T06:06:42.122Z,8.50
2018-07-19T06:08:46.184Z,9.33
2018-07-19T06:10:50.455Z,8.40
2018-07-19T06:12:55.065Z,8.23
2018-07-19T06:14:59.532Z,9.33
2018-07-19T06:17:03.794Z,8.43
2018-07-19T06:19:07.981Z,9.00
2018-07-19T06:21:12.048Z,8.40
2018-07-19T06:23:16.052Z,9.20
2018-07-19T06:25:20.544Z,8.70
2018-07-19T06:27:24.618Z,8.40
2018-07-19T06:29:28.938Z,9.83
2018-07-19T06:31:33.347Z,9.60
2018-07-19T06:33:37.443Z,9.18
2018-07-19T06:35:41.559Z,8.97
2018-07-19T06:37:45.615Z,8.53
2018-07-19T06:39:49.816Z,9.20
2018-07-19T06:41:53.832Z,8.37
2018-07-19T06:43:57.955Z,8.33
2018-07-19T06:46:02.155Z,9.47
2018-07-19T06:48:06.285Z,9.37
2018-07-19T06:50:10.417Z,9.03
2018-07-19T06:52:15.118Z,9.30
2018-07-19T06:54:19.177Z,9.40
2018-07-19T06:56:23.534Z,9.43
2018-07-19T06:58:27.537Z,9.03
2018-07-19T07:00:31.760Z,8.97
2018-07-19T07:02:37.115Z,8.60
2018-07-19T07:04:41.292Z,8.67
2018-07-19T07:06:45.353Z,8.73
2018-07-19T07:08:49.697Z,8.67
2018-07-19T07:10:53.776Z,7.17
2018-07-19T07:12:58.007Z,8.77
2018-07-19T07:15:02.056Z,9.23
2018-07-19T07:17:06.331Z,8.63
2018-07-19T07:19:10.620Z,8.20
2018-07-19T07:21:14.870Z,8.50
2018-07-19T07:23:18.995Z,9.30
2018-07-19T07:25:23.142Z,8.57
2018-07-19T07:27:27.426Z,9.00
2018-07-19T07:29:31.512Z,8.20
2018-07-19T07:31:35.554Z,8.30
2018-07-19T07:33:39.860Z,9.10
2018-07-19T07:35:43.884Z,8.03
2018-07-19T07:37:48.178Z,7.57
2018-07-19T07:39:52.082Z,7.47
2018-07-19T07:41:56.118Z,7.40
2018-07-19T07:43:59.990Z,7.57
2018-07-19T07:46:05.056Z,8.27
2018-07-19T07:48:09.067Z,8.17
2018-07-19T07:50:12.937Z,8.20
2018-07-19T07:52:16.893Z,8.37
2018-07-19T07:54:20.764Z,7.50
2018-07-19T07:56:24.791Z,8.33
2018-07-19T07:58:28.616Z,7.80
2018-07-19T08:00:32.667Z,8.70
2018-07-19T08:02:36.465Z,7.90
2018-07-19T08:04:40.624Z,7.80
2018-07-19T08:06:44.464Z,8.30
2018-07-19T08:08:48.399Z,8.03
2018-07-19T08:10:52.321Z,7.10
2018-07-19T08:12:56.198Z,8.23
2018-07-19T08:15:00.041Z,8.07
2018-07-19T08:17:04.045Z,8.00
2018-07-19T08:19:07.877Z,7.90
2018-07-19T08:21:11.827Z,8.07
2018-07-19T08:23:15.703Z,8.13
2018-07-19T08:25:19.642Z,9.00
2018-07-19T08:27:23.464Z,7.40
2018-07-19T08:29:27.385Z,8.93
2018-07-19T08:31:31.209Z,8.37
2018-07-19T08:33:35.176Z,7.30
2018-07-19T08:35:39.148Z,7.30
2018-07-19T08:37:43.072Z,6.67
2018-07-19T08:39:47.010Z,7.27
2018-07-19T08:41:51.073Z,7.20
2018-07-19T08:43:54.850Z,6.80
2018-07-19T08:45:58.826Z,6.73
2018-07-19T08:48:02.646Z,6.73
2018-07-19T08:50:06.888Z,6.60
2018-07-19T08:52:10.795Z,6.80
2018-07-19T08:54:14.775Z,6.23
2018-07-19T08:56:18.701Z,6.17
2018-07-19T08:58:22.621Z,5.40
2018-07-19T09:00:26.445Z,5.63
2018-07-19T09:02:31.466Z,5.03
2018-07-19T09:04:35.487Z,3.80
2018-07-19T09:06:39.308Z,4.20
2018-07-19T09:08:43.241Z,4.70
2018-07-19T09:10:47.169Z,4.30
2018-07-19T09:12:51.100Z,4.67
2018-07-19T09:14:54.936Z,4.83
2018-07-19T09:16:58.975Z,5.13
2018-07-19T09:19:02.769Z,5.60
2018-07-19T09:21:06.854Z,4.77
2018-07-19T09:23:10.658Z,4.80
2018-07-19T09:25:14.595Z,4.40
2018-07-19T09:27:18.436Z,5.30
2018-07-19T09:29:22.361Z,5.07
2018-07-19T09:31:26.149Z,4.90
2018-07-19T09:33:30.091Z,5.80
2018-07-19T09:35:33.866Z,4.60
2018-07-19T09:37:37.854Z,5.13
2018-07-19T09:39:41.643Z,4.60
2018-07-19T09:41:45.621Z,4.27
2018-07-19T09:43:49.426Z,4.67
2018-07-19T09:45:53.432Z,4.17
2018-07-19T09:47:57.294Z,4.63
2018-07-19T09:50:01.284Z,5.30
2018-07-19T09:52:05.169Z,4.60
2018-07-19T09:54:09.134Z,5.10
2018-07-19T09:56:12.977Z,4.03
2018-07-19T09:58:16.841Z,4.10
2018-07-19T10:00:25.838Z,4.60
2018-07-19T10:02:29.866Z,3.77
2018-07-19T10:04:33.701Z,4.30
2018-07-19T10:06:37.595Z,3.97
2018-07-19T10:08:41.426Z,4.30
2018-07-19T10:10:45.307Z,4.33
2018-07-19T10:12:49.159Z,3.83
2018-07-19T10:14:54.199Z,4.80
2018-07-19T10:16:58.090Z,4.70
2018-07-19T10:19:01.922Z,4.43
2018-07-19T10:21:05.919Z,4.33
2018-07-19T10:23:09.723Z,3.90
2018-07-19T10:25:13.646Z,3.97
2018-07-19T10:27:17.496Z,4.30
2018-07-19T10:29:21.623Z,3.93
2018-07-19T10:31:25.454Z,4.10
2018-07-19T10:33:29.393Z,3.70
2018-07-19T10:35:33.282Z,3.80
2018-07-19T10:37:37.291Z,4.20
2018-07-19T10:39:41.074Z,3.43
2018-07-19T10:41:45.019Z,4.33
2018-07-19T10:43:48.855Z,3.93
2018-07-19T10:45:52.878Z,4.60
2018-07-19T10:47:56.690Z,4.57
2018-07-19T10:50:00.617Z,3.70
2018-07-19T10:52:04.473Z,4.50
2018-07-19T10:54:08.501Z,3.60
2018-07-19T10:56:12.328Z,4.13
2018-07-19T10:58:16.287Z,3.80
2018-07-19T11:00:20.140Z,3.80
2018-07-19T11:02:24.098Z,4.20
2018-07-19T11:04:27.895Z,4.27
2018-07-19T11:06:31.856Z,4.30
2018-07-19T11:08:35.666Z,4.00
2018-07-19T11:10:39.537Z,3.50
2018-07-19T11:12:43.350Z,3.83
2018-07-19T11:14:47.245Z,3.80
2018-07-19T11:16:51.075Z,3.60
2018-07-19T11:18:56.608Z,4.00
2018-07-19T11:21:00.456Z,3.67
2018-07-19T11:23:04.270Z,3.57
2018-07-19T11:25:08.205Z,3.20
2018-07-19T11:27:12.059Z,4.07
2018-07-19T11:29:15.934Z,3.30
2018-07-19T11:31:19.789Z,3.50
2018-07-19T11:33:23.718Z,3.40
2018-07-19T11:35:27.546Z,3.63
2018-07-19T11:37:31.444Z,3.70
2018-07-19T11:39:35.228Z,3.23
2018-07-19T11:41:39.489Z,3.60
2018-07-19T11:43:43.323Z,3.80
2018-07-19T11:45:47.220Z,3.53
2018-07-19T11:47:50.981Z,2.83
2018-07-19T11:49:54.964Z,3.37
2018-07-19T11:51:58.724Z,3.17
2018-07-19T11:54:02.678Z,3.83
2018-07-19T11:56:06.536Z,3.57
2018-07-19T11:58:10.421Z,4.03
2018-07-19T12:00:14.250Z,3.57
2018-07-19T12:02:18.209Z,3.50
2018-07-19T12:04:22.052Z,3.43
2018-07-19T12:06:25.975Z,3.27
2018-07-19T12:08:29.767Z,3.33
2018-07-19T12:10:33.648Z,3.50
2018-07-19T12:12:37.558Z,3.30
2018-07-19T12:14:41.439Z,3.90
2018-07-19T12:16:45.236Z,3.67
2018-07-19T12:18:49.153Z,4.17
2018-07-19T12:20:52.940Z,3.90
2018-07-19T12:22:56.828Z,3.47
2018-07-19T12:25:00.637Z,3.50
2018-07-19T12:27:04.562Z,3.10
2018-07-19T12:29:08.380Z,3.30
2018-07-19T12:31:12.248Z,2.80
2018-07-19T12:33:16.059Z,3.00
2018-07-19T12:35:19.910Z,3.80
2018-07-19T12:37:23.751Z,2.87
2018-07-19T12:39:27.638Z,2.87
2018-07-19T12:41:31.480Z,2.70
2018-07-19T12:43:35.414Z,2.87
2018-07-19T12:45:39.194Z,3.07
2018-07-19T12:47:43.060Z,3.03
2018-07-19T12:49:46.895Z,2.80
2018-07-19T12:51:50.743Z,3.43
2018-07-19T12:53:54.532Z,3.33
2018-07-19T12:55:58.510Z,3.27
2018-07-19T12:58:02.288Z,3.10
2018-07-19T13:00:06.652Z,2.83
2018-07-19T13:02:10.595Z,3.15
2018-07-19T13:04:14.486Z,3.57
2018-07-19T13:06:18.258Z,3.03
2018-07-19T13:08:22.133Z,3.00
2018-07-19T13:10:25.956Z,3.10
2018-07-19T13:12:29.869Z,3.37
2018-07-19T13:14:33.699Z,3.00
2018-07-19T13:16:37.614Z,2.90
2018-07-19T13:18:41.408Z,3.00
2018-07-19T13:20:45.268Z,3.27
2018-07-19T13:22:50.415Z,3.50
2018-07-19T13:24:54.272Z,3.30
2018-07-19T13:26:58.184Z,3.00
2018-07-19T13:29:02.039Z,3.43
2018-07-19T13:31:05.987Z,3.03
2018-07-19T13:33:09.407Z,3.40
2018-07-19T13:35:13.363Z,3.77
2018-07-19T13:37:17.130Z,3.33
2018-07-19T13:39:21.077Z,3.80
2018-07-19T13:41:24.890Z,3.50
2018-07-19T13:43:28.761Z,3.23
2018-07-19T13:45:32.626Z,3.23
2018-07-19T13:47:36.511Z,3.40
2018-07-19T13:49:40.314Z,3.33
2018-07-19T13:51:44.264Z,3.07
2018-07-19T13:54:12.401Z,3.30
2018-07-19T13:56:16.332Z,3.13
2018-07-19T13:58:20.189Z,3.30
2018-07-19T14:00:24.086Z,3.20
2018-07-19T14:02:27.953Z,3.50
2018-07-19T14:04:31.808Z,3.20
2018-07-19T14:06:35.732Z,3.17
2018-07-19T14:08:39.738Z,3.70
2018-07-19T14:10:43.507Z,3.50
2018-07-19T14:12:47.373Z,3.47
2018-07-19T14:14:51.179Z,3.50
2018-07-19T14:16:55.073Z,3.93
2018-07-19T14:19:00.178Z,3.10
2018-07-19T14:21:04.036Z,3.50
2018-07-19T14:23:08.020Z,4.13
2018-07-19T14:25:11.933Z,3.83
2018-07-19T14:27:15.765Z,2.87
2018-07-19T14:29:19.654Z,3.43
2018-07-19T14:31:23.452Z,3.27
2018-07-19T14:33:27.298Z,3.07
2018-07-19T14:35:30.691Z,3.07
2018-07-19T14:37:34.550Z,3.20
2018-07-19T14:39:38.361Z,3.13
2018-07-19T14:41:42.227Z,3.23
2018-07-19T14:43:46.049Z,3.37
2018-07-19T14:45:49.898Z,3.13
2018-07-19T14:47:54.279Z,2.77
2018-07-19T14:49:58.153Z,3.10
2018-07-19T14:52:01.925Z,3.00
2018-07-19T14:54:05.864Z,3.20
2018-07-19T14:56:10.296Z,2.67
2018-07-19T14:58:14.207Z,3.60
2018-07-19T15:00:18.015Z,3.13
2018-07-19T15:02:23.111Z,3.63
2018-07-19T15:04:26.969Z,3.80
2018-07-19T15:06:30.864Z,3.37
2018-07-19T15:08:34.725Z,2.90
2018-07-19T15:10:38.507Z,3.00
2018-07-19T15:12:42.460Z,3.80
2018-07-19T15:14:46.245Z,3.70
2018-07-19T15:16:50.144Z,3.40
2018-07-19T15:18:53.969Z,3.03
2018-07-19T15:20:57.871Z,2.90
2018-07-19T15:23:01.726Z,3.00
2018-07-19T15:25:05.666Z,3.27
2018-07-19T15:27:09.449Z,3.53
2018-07-19T15:29:13.296Z,3.23
2018-07-19T15:31:17.249Z,3.43
2018-07-19T15:33:21.170Z,3.43
2018-07-19T15:35:24.966Z,3.37
2018-07-19T15:37:28.874Z,2.80
2018-07-19T15:39:32.659Z,3.13
2018-07-19T15:41:36.529Z,2.93
2018-07-19T15:43:40.414Z,3.00
2018-07-19T15:45:44.282Z,3.10
2018-07-19T15:47:48.126Z,3.60
2018-07-19T15:49:52.052Z,3.47
2018-07-19T15:51:55.888Z,3.20
2018-07-19T15:53:59.926Z,3.37
2018-07-19T15:56:03.752Z,3.57
2018-07-19T15:58:07.698Z,3.60
2018-07-19T16:00:11.574Z,3.70
2018-07-19T16:02:15.432Z,3.27
2018-07-19T16:04:18.861Z,3.30
2018-07-19T16:06:22.800Z,4.30
2018-07-19T16:08:26.820Z,4.10
2018-07-19T16:10:30.693Z,4.83
2018-07-19T16:12:34.554Z,3.87
2018-07-19T16:14:38.028Z,3.70
2018-07-19T16:16:41.492Z,3.90
2018-07-19T16:18:45.378Z,4.03
2018-07-19T16:20:49.229Z,3.97
2018-07-19T16:22:53.206Z,4.30
2018-07-19T16:24:56.983Z,4.10
2018-07-19T16:27:00.960Z,3.60
2018-07-19T16:29:04.340Z,4.67
2018-07-19T16:31:08.287Z,4.30
2018-07-19T16:33:12.114Z,4.07
2018-07-19T16:35:16.029Z,4.43
2018-07-19T16:37:19.843Z,3.80
2018-07-19T16:39:23.840Z,4.80
2018-07-19T16:41:27.642Z,3.80
2018-07-19T16:43:32.679Z,4.37
2018-07-19T16:45:36.570Z,4.10
2018-07-19T16:47:40.350Z,4.77
2018-07-19T16:49:45.300Z,4.10
2018-07-19T16:51:49.640Z,3.92
2018-07-19T16:53:53.618Z,4.20
2018-07-19T16:55:57.450Z,4.80
2018-07-19T16:58:01.315Z,4.80
2018-07-19T17:00:06.121Z,4.23
2018-07-19T17:02:10.085Z,3.90
2018-07-19T17:04:14.131Z,4.13
2018-07-19T17:06:18.063Z,4.47
2018-07-19T17:08:21.836Z,4.40
2018-07-19T17:10:25.674Z,4.40
2018-07-19T17:12:29.480Z,5.00
2018-07-19T17:14:33.363Z,3.97
2018-07-19T17:16:37.174Z,4.27
2018-07-19T17:18:41.017Z,3.80
2018-07-19T17:20:44.828Z,4.60
2018-07-19T17:22:48.723Z,4.70
2018-07-19T17:24:52.567Z,4.90
2018-07-19T17:26:56.445Z,5.10
2018-07-19T17:29:00.682Z,5.50
2018-07-19T17:31:04.841Z,7.20
2018-07-19T17:33:08.687Z,8.10
2018-07-19T17:35:12.585Z,6.03
2018-07-19T17:37:16.396Z,6.40
2018-07-19T17:39:20.627Z,5.90
2018-07-19T17:41:24.458Z,6.47
2018-07-19T17:43:29.569Z,5.70
2018-07-19T17:45:33.508Z,5.83
2018-07-19T17:47:37.859Z,6.50
2018-07-19T17:49:41.967Z,5.43
2018-07-19T17:51:50.120Z,5.83
2018-07-19T17:54:04.561Z,5.63
2018-07-19T17:56:09.128Z,6.07
2018-07-19T17:58:13.603Z,6.08
2018-07-19T18:00:18.642Z,7.27
2018-07-19T18:02:22.951Z,5.33
2018-07-19T18:04:26.765Z,5.80
2018-07-19T18:06:30.747Z,6.40
2018-07-19T18:08:34.796Z,5.60
2018-07-19T18:10:38.812Z,6.20
2018-07-19T18:12:42.728Z,6.73
2018-07-19T18:14:53.562Z,6.30
2018-07-19T18:16:58.702Z,6.90
2018-07-19T18:19:02.880Z,6.90
2018-07-19T18:21:06.749Z,7.13
2018-07-19T18:23:10.771Z,7.00
2018-07-19T18:25:14.706Z,7.10
2018-07-19T18:45:57.883Z,5.70
2018-07-19T18:48:01.814Z,5.40
2018-07-19T18:50:05.702Z,5.33
2018-07-19T18:52:09.570Z,5.27
2018-07-19T18:54:13.524Z,6.10
2018-07-19T18:56:17.293Z,6.53
2018-07-19T18:58:21.198Z,6.10
2018-07-19T19:00:24.982Z,5.70
2018-07-19T19:02:29.203Z,6.07
2018-07-19T19:04:33.127Z,5.23
2018-07-19T19:06:37.169Z,5.00
2018-07-19T19:08:41.011Z,5.60
2018-07-19T19:10:45.026Z,5.97
2018-07-19T19:12:48.868Z,5.10
2018-07-19T19:14:52.861Z,4.90
2018-07-19T19:16:56.926Z,5.00
2018-07-19T19:19:01.028Z,5.20
2018-07-19T19:21:06.977Z,5.83
2018-07-19T19:23:10.793Z,5.60
2018-07-19T19:25:14.650Z,5.17
2018-07-19T19:27:18.516Z,4.70
2018-07-19T19:29:22.401Z,4.53
2018-07-19T19:31:26.450Z,5.73
2018-07-19T19:33:30.359Z,4.90
2018-07-19T19:35:34.239Z,5.20
2018-07-19T19:37:37.992Z,5.03
2018-07-19T19:39:41.863Z,5.67
2018-07-19T19:41:45.611Z,5.60
2018-07-19T19:43:49.565Z,5.33
2018-07-19T19:45:52.958Z,4.47
2018-07-19T19:47:56.833Z,5.23
2018-07-19T19:50:00.622Z,5.33
2018-07-19T19:52:04.584Z,5.40
2018-07-19T19:54:08.448Z,5.07
2018-07-19T19:56:12.546Z,4.87
2018-07-19T19:58:16.519Z,4.80
2018-07-19T20:00:21.805Z,5.37
2018-07-19T20:02:25.908Z,5.00
2018-07-19T20:04:29.830Z,5.03
2018-07-19T20:06:33.779Z,5.70
2018-07-19T20:08:38.651Z,5.70
2018-07-19T20:10:42.575Z,5.10
2018-07-19T20:12:46.354Z,5.70
2018-07-19T20:14:50.255Z,5.13
2018-07-19T20:16:55.217Z,5.30
2018-07-19T20:18:59.109Z,5.70
2018-07-19T20:21:03.005Z,5.13
2018-07-19T20:23:06.959Z,5.10
2018-07-19T20:25:11.008Z,5.20
2018-07-19T20:27:14.888Z,7.07
2018-07-19T20:29:18.652Z,4.73
2018-07-19T20:31:22.555Z,5.53
2018-07-19T20:33:26.317Z,4.77
2018-07-19T20:35:30.263Z,5.00
2018-07-19T20:37:34.073Z,5.43
2018-07-19T20:39:38.020Z,5.20
2018-07-19T20:41:41.858Z,5.33
2018-07-19T20:43:45.792Z,5.30
2018-07-19T20:45:49.545Z,5.30
2018-07-19T20:47:53.450Z,4.87
2018-07-19T20:49:57.013Z,5.43
2018-07-19T20:52:00.900Z,5.23
2018-07-19T20:54:04.911Z,5.10
2018-07-19T20:56:08.766Z,5.63
2018-07-19T20:58:12.558Z,5.03
2018-07-19T21:00:16.497Z,5.53
2018-07-19T21:02:20.351Z,4.97
2018-07-19T21:04:24.286Z,4.53
2018-07-19T21:06:28.159Z,4.70
2018-07-19T21:08:32.222Z,4.83
2018-07-19T21:10:36.534Z,5.27
2018-07-19T21:12:40.419Z,5.10
2018-07-19T21:14:44.196Z,4.43
2018-07-19T21:16:48.104Z,4.90
2018-07-19T21:18:51.864Z,4.93
2018-07-19T21:20:55.696Z,4.57
2018-07-19T21:22:59.570Z,4.23
2018-07-19T21:25:03.438Z,3.60
2018-07-19T21:27:07.278Z,4.27
2018-07-19T21:29:11.248Z,4.37
2018-07-19T21:31:15.001Z,4.10
2018-07-19T21:33:18.869Z,4.13
2018-07-19T21:35:22.669Z,3.53
2018-07-19T21:37:26.734Z,3.53
2018-07-19T21:39:30.499Z,4.07
2018-07-19T21:41:34.386Z,3.60
2018-07-19T21:43:38.246Z,3.67
2018-07-19T21:45:42.303Z,3.77
2018-07-19T21:47:46.295Z,3.60
2018-07-19T21:49:50.175Z,3.67
2018-07-19T21:51:54.161Z,4.10
2018-07-19T21:53:58.044Z,3.80
2018-07-19T21:56:01.911Z,4.10
2018-07-19T21:58:05.904Z,3.57
2018-07-19T22:00:09.741Z,3.90
2018-07-19T22:02:14.315Z,5.40
2018-07-19T22:04:18.311Z,5.53
2018-07-19T22:06:22.129Z,6.97
2018-07-19T22:08:25.930Z,8.10
2018-07-19T22:10:29.875Z,8.90
2018-07-19T22:12:33.626Z,7.63
2018-07-19T22:14:37.487Z,7.70
2018-07-19T22:16:41.375Z,6.87
2018-07-19T22:18:45.218Z,5.57
2018-07-19T22:20:49.004Z,6.10
2018-07-19T22:22:52.815Z,5.40
2018-07-19T22:24:56.551Z,4.50
2018-07-19T22:27:00.438Z,5.90
2018-07-19T22:29:04.344Z,4.20
2018-07-19T22:31:08.250Z,5.10
2018-07-19T22:33:12.008Z,4.57
2018-07-19T22:35:15.881Z,4.60
2018-07-19T22:37:19.648Z,4.53
2018-07-19T22:39:23.459Z,4.70
2018-07-19T22:41:27.210Z,4.73
2018-07-19T22:43:31.030Z,4.60
2018-07-19T22:45:34.807Z,4.17
2018-07-19T22:47:38.750Z,4.30
2018-07-19T22:49:42.550Z,4.03
2018-07-19T22:51:46.444Z,4.80
2018-07-19T22:53:50.245Z,4.17
2018-07-19T22:55:54.291Z,4.00
2018-07-19T22:57:57.721Z,4.20
2018-07-19T23:00:01.549Z,4.17
2018-07-19T23:02:05.331Z,3.80
2018-07-19T23:04:09.197Z,4.17
2018-07-19T23:06:12.952Z,4.00
2018-07-19T23:08:16.870Z,4.50
2018-07-19T23:10:20.650Z,4.40
2018-07-19T23:12:24.518Z,4.23
2018-07-19T23:14:28.269Z,4.93
2018-07-19T23:16:32.158Z,4.30
2018-07-19T23:18:35.941Z,4.43
2018-07-19T23:20:39.812Z,4.37
2018-07-19T23:22:49.443Z,4.60
2018-07-19T23:24:53.400Z,4.43
2018-07-19T23:26:57.268Z,4.20
2018-07-19T23:29:01.143Z,4.00
2018-07-19T23:31:04.998Z,4.47
2018-07-19T23:33:08.951Z,4.37
2018-07-19T23:35:12.910Z,4.23
2018-07-19T23:37:25.968Z,4.90
2018-07-19T23:39:33.976Z,3.87
2018-07-19T23:41:42.895Z,4.70
2018-07-19T23:43:50.090Z,4.20
2018-07-19T23:46:02.421Z,4.20
2018-07-19T23:48:06.376Z,4.17
2018-07-19T23:50:10.286Z,4.40
2018-07-19T23:52:14.140Z,4.30
2018-07-19T23:54:17.874Z,5.80
2018-07-19T23:56:21.770Z,4.57
2018-07-19T23:58:25.553Z,4.37
